Southport, Illinois
Current Conditions -  °F | °C
As of 11:54 AM on Saturday 25 Oct 2014 (Local Time) from KPIA Reporting Station
Clear Clear  
Wind Chill: 66°   Ceiling: Unl
Heat Index: 66°   Visibility: 10mi
Dew Point: 53°   Wind: 7mph
Humidity: 63%   Direction: 280°W
Pressure: 30.03"   Gusts: NA
Location:  40.8318°N, 89.8586°W
Report Text: KPIA 251654Z 28006KT 10SM CLR 19/12 A3003 RMK AO2 SLP167 T01890117
Loading
Personal Weather Stations






























Interactive Weather Map
Tropical Storm Tracking
New forecast layout! Learn more

10-Day Weather Forecast

Advertisements
Track Severe Weather on mobile